createdAt,value
2023-09-20T00:00:37.291Z,7.07
2023-09-20T00:05:34.142Z,7.72
2023-09-20T00:10:31.677Z,7.18
2023-09-20T00:15:30.737Z,7.50
2023-09-20T00:20:27.734Z,7.70
2023-09-20T00:25:25.371Z,8.45
2023-09-20T00:30:22.983Z,7.38
2023-09-20T00:35:20.159Z,8.45
2023-09-20T00:40:19.468Z,8.23
2023-09-20T00:45:16.798Z,8.00
2023-09-20T00:50:15.931Z,8.52
2023-09-20T00:55:21.212Z,8.70
2023-09-20T01:00:22.160Z,7.95
2023-09-20T01:05:22.367Z,8.25
2023-09-20T01:10:23.359Z,8.48
2023-09-20T01:15:21.853Z,8.85
2023-09-20T01:20:19.868Z,7.95
2023-09-20T01:25:22.529Z,7.50
2023-09-20T01:30:19.321Z,7.90
2023-09-20T01:35:17.229Z,7.32
2023-09-20T01:40:16.079Z,8.70
2023-09-20T01:45:16.621Z,8.55
2023-09-20T01:50:14.228Z,8.25
2023-09-20T01:55:15.833Z,9.45
2023-09-20T02:00:23.398Z,8.85
2023-09-20T02:05:21.721Z,8.70
2023-09-20T02:10:18.936Z,9.07
2023-09-20T02:15:18.359Z,8.90
2023-09-20T02:20:19.960Z,7.55
2023-09-20T02:25:20.915Z,9.02
2023-09-20T02:30:23.336Z,8.73
2023-09-20T02:35:20.994Z,8.50
2023-09-20T02:40:18.833Z,8.85
2023-09-20T02:45:16.676Z,9.82
2023-09-20T02:50:17.359Z,9.00
2023-09-20T02:55:17.626Z,9.10
2023-09-20T03:00:17.534Z,8.65
2023-09-20T03:05:22.217Z,8.15
2023-09-20T03:10:21.764Z,8.95
2023-09-20T03:15:22.339Z,8.05
2023-09-20T03:20:25.099Z,9.05
2023-09-20T03:25:29.476Z,7.35
2023-09-20T03:30:28.642Z,8.00
2023-09-20T03:35:26.261Z,8.73
2023-09-20T03:40:23.722Z,8.13
2023-09-20T03:45:24.242Z,9.18
2023-09-20T03:50:22.909Z,8.85
2023-09-20T03:55:22.084Z,8.77
2023-09-20T04:00:28.550Z,8.02
2023-09-20T04:05:44.392Z,8.90
2023-09-20T04:10:43.975Z,7.82
2023-09-20T04:15:52.725Z,8.77
2023-09-20T04:20:54.194Z,9.15
2023-09-20T04:25:52.565Z,7.88
2023-09-20T04:30:51.617Z,9.27
2023-09-20T04:35:48.957Z,9.15
2023-09-20T04:40:53.889Z,9.35
2023-09-20T04:45:52.816Z,9.98
2023-09-20T04:50:50.233Z,8.55
2023-09-20T04:55:47.237Z,8.80
2023-09-20T05:00:45.068Z,7.80
2023-09-20T05:05:45.821Z,7.75
2023-09-20T05:10:43.105Z,9.65
2023-09-20T05:15:40.585Z,8.57
2023-09-20T05:20:39.200Z,9.15
2023-09-20T05:25:36.741Z,8.93
2023-09-20T05:30:34.057Z,7.63
2023-09-20T05:35:30.886Z,6.45
2023-09-20T05:40:28.826Z,6.65
2023-09-20T05:45:27.371Z,8.93
2023-09-20T05:50:33.707Z,8.10
2023-09-20T05:55:33.311Z,7.53
2023-09-20T06:00:39.398Z,7.60
2023-09-20T06:05:37.798Z,7.05
2023-09-20T06:10:35.324Z,8.60
2023-09-20T06:15:32.200Z,7.57
2023-09-20T06:20:29.147Z,7.50
2023-09-20T06:25:27.448Z,6.93
2023-09-20T06:30:28.509Z,7.57
2023-09-20T06:35:25.613Z,8.07
2023-09-20T06:40:23.792Z,6.70
2023-09-20T06:45:21.066Z,7.65
2023-09-20T06:50:19.197Z,6.25
2023-09-20T06:55:17.876Z,6.85
2023-09-20T07:00:27.502Z,6.47
2023-09-20T07:05:28.756Z,6.03
2023-09-20T07:10:26.865Z,6.85
2023-09-20T07:15:26.148Z,6.38
2023-09-20T07:20:23.278Z,6.95
2023-09-20T07:25:21.465Z,7.70
2023-09-20T07:30:20.812Z,7.10
2023-09-20T07:35:28.081Z,6.95
2023-09-20T07:40:54.301Z,6.05
2023-09-20T07:46:01.442Z,6.18
2023-09-20T07:50:59.228Z,7.30
2023-09-20T07:56:02.127Z,6.47
2023-09-20T08:01:00.476Z,5.82
2023-09-20T08:05:57.692Z,6.25
2023-09-20T08:11:10.859Z,5.45
2023-09-20T08:16:16.320Z,6.40
2023-09-20T08:21:13.378Z,6.85
2023-09-20T08:26:28.650Z,6.88
2023-09-20T08:31:44.860Z,6.22
2023-09-20T08:37:01.865Z,5.97
2023-09-20T08:42:16.752Z,6.22
2023-09-20T08:47:34.428Z,6.05
2023-09-20T08:52:49.457Z,5.95
2023-09-20T08:58:04.921Z,6.07
2023-09-20T09:03:05.937Z,5.85
2023-09-20T09:08:06.375Z,5.35
2023-09-20T09:13:06.776Z,6.05
2023-09-20T09:18:19.918Z,5.90
2023-09-20T09:23:36.985Z,6.50
2023-09-20T09:28:37.138Z,7.05
2023-09-20T09:33:38.700Z,6.07
2023-09-20T09:38:36.066Z,7.95
2023-09-20T09:43:33.796Z,6.90
2023-09-20T09:48:36.132Z,7.63
2023-09-20T09:53:38.080Z,7.82
2023-09-20T09:58:35.315Z,8.32
2023-09-20T10:03:34.877Z,8.25
2023-09-20T10:08:36.804Z,8.05
2023-09-20T10:13:36.777Z,6.70
2023-09-20T10:18:34.724Z,7.10
2023-09-20T10:23:37.740Z,5.70
2023-09-20T10:28:41.921Z,6.22
2023-09-20T10:33:42.703Z,6.78
2023-09-20T10:38:45.107Z,6.18
2023-09-20T10:43:46.954Z,5.78
2023-09-20T10:48:49.759Z,5.53
2023-09-20T10:53:57.065Z,6.10
2023-09-20T10:58:57.609Z,5.63
2023-09-20T11:03:58.511Z,5.22
2023-09-20T11:08:57.274Z,6.32
2023-09-20T11:13:55.329Z,5.60
2023-09-20T11:18:52.873Z,4.95
2023-09-20T11:23:49.945Z,6.03
2023-09-20T11:28:46.944Z,5.10
2023-09-20T11:33:46.126Z,6.85
2023-09-20T11:38:47.764Z,6.28
2023-09-20T11:43:46.495Z,6.85
2023-09-20T11:48:48.455Z,7.35
2023-09-20T11:53:46.023Z,6.68
2023-09-20T11:58:45.753Z,6.95
2023-09-20T12:03:43.071Z,8.40
2023-09-20T12:08:41.154Z,6.43
2023-09-20T12:13:38.675Z,7.65
2023-09-20T12:18:37.289Z,7.90
2023-09-20T12:23:35.805Z,7.88
2023-09-20T12:28:34.085Z,6.70
2023-09-20T12:33:33.310Z,5.80
2023-09-20T12:38:30.447Z,6.45
2023-09-20T12:43:40.352Z,6.32
2023-09-20T12:48:39.109Z,5.85
2023-09-20T12:53:45.577Z,6.07
2023-09-20T12:58:43.593Z,5.03
2023-09-20T13:03:41.981Z,5.90
2023-09-20T13:08:39.479Z,5.50
2023-09-20T13:13:38.644Z,5.55
2023-09-20T13:18:38.782Z,4.90
2023-09-20T13:23:36.642Z,5.07
2023-09-20T13:28:33.757Z,5.00
2023-09-20T13:33:31.514Z,5.18
2023-09-20T13:38:30.385Z,4.65
2023-09-20T13:43:28.331Z,5.22
2023-09-20T13:48:25.694Z,5.10
2023-09-20T13:53:22.967Z,4.57
2023-09-20T13:58:20.664Z,5.13
2023-09-20T14:03:17.695Z,5.10
2023-09-20T14:08:14.707Z,4.80
2023-09-20T14:13:11.842Z,4.55
2023-09-20T14:18:09.953Z,4.78
2023-09-20T14:23:07.624Z,4.53
2023-09-20T14:28:05.149Z,4.43
2023-09-20T14:33:04.198Z,4.65
2023-09-20T14:38:03.196Z,4.13
2023-09-20T14:43:00.590Z,4.55
2023-09-20T14:48:03.345Z,4.63
2023-09-20T14:53:04.117Z,3.90
2023-09-20T14:58:01.762Z,5.47
2023-09-20T15:03:02.807Z,4.93
2023-09-20T15:08:05.706Z,4.55
2023-09-20T15:13:04.585Z,4.68
2023-09-20T15:18:03.129Z,4.15
2023-09-20T15:23:01.710Z,4.65
2023-09-20T15:27:59.661Z,3.92
2023-09-20T15:32:57.434Z,3.70
2023-09-20T15:37:56.548Z,3.83
2023-09-20T15:42:55.941Z,4.40
2023-09-20T15:47:52.975Z,3.85
2023-09-20T15:52:50.737Z,3.80
2023-09-20T15:57:47.632Z,4.25
2023-09-20T16:02:45.240Z,4.47
2023-09-20T16:07:42.651Z,3.78
2023-09-20T16:12:40.213Z,5.13
2023-09-20T16:17:38.593Z,4.38
2023-09-20T16:22:35.803Z,5.07
2023-09-20T16:27:53.182Z,5.05
2023-09-20T16:32:51.801Z,5.20
2023-09-20T16:37:50.273Z,4.55
2023-09-20T16:42:48.460Z,4.70
2023-09-20T16:47:46.786Z,4.93
2023-09-20T16:52:47.182Z,5.32
2023-09-20T16:57:48.167Z,4.90
2023-09-20T17:02:48.186Z,5.37
2023-09-20T17:07:45.907Z,4.88
2023-09-20T17:12:42.733Z,4.68
2023-09-20T17:17:40.836Z,4.95
2023-09-20T17:22:38.312Z,4.75
2023-09-20T17:27:36.469Z,5.15
2023-09-20T17:32:33.513Z,6.32
2023-09-20T17:37:35.840Z,4.72
2023-09-20T17:42:36.064Z,4.30
2023-09-20T17:47:46.602Z,4.70
2023-09-20T17:52:48.806Z,4.80
2023-09-20T17:57:46.989Z,4.35
2023-09-20T18:02:47.022Z,4.18
2023-09-20T18:07:43.974Z,5.25
2023-09-20T18:12:41.091Z,5.63
2023-09-20T18:17:40.910Z,6.03
2023-09-20T18:22:41.876Z,4.78
2023-09-20T18:27:39.321Z,5.68
2023-09-20T18:32:37.025Z,4.72
2023-09-20T18:37:33.944Z,5.20
2023-09-20T18:42:34.434Z,4.32
2023-09-20T18:47:42.954Z,5.10
2023-09-20T18:52:43.810Z,5.10
2023-09-20T18:57:41.459Z,6.78
2023-09-20T19:02:38.417Z,8.05
2023-09-20T19:07:35.489Z,5.20
2023-09-20T19:12:32.371Z,5.50
2023-09-20T19:17:33.035Z,5.15
2023-09-20T19:22:30.012Z,5.80
2023-09-20T19:27:26.844Z,5.68
2023-09-20T19:32:23.692Z,5.20
2023-09-20T19:37:22.429Z,6.20
2023-09-20T19:42:19.874Z,5.30
2023-09-20T19:47:16.783Z,5.45
2023-09-20T19:52:15.266Z,5.80
2023-09-20T19:57:12.786Z,5.03
2023-09-20T20:02:09.541Z,4.95
2023-09-20T20:07:21.618Z,6.15
2023-09-20T20:12:24.973Z,5.60
2023-09-20T20:17:21.986Z,5.28
2023-09-20T20:22:22.393Z,6.13
2023-09-20T20:27:19.310Z,6.70
2023-09-20T20:32:19.954Z,6.32
2023-09-20T20:37:17.233Z,6.50
2023-09-20T20:42:14.100Z,5.95
2023-09-20T20:47:10.958Z,7.10
2023-09-20T20:52:08.577Z,6.85
2023-09-20T20:57:07.388Z,6.28
2023-09-20T21:02:07.776Z,6.22
2023-09-20T21:07:05.536Z,6.28
2023-09-20T21:12:10.320Z,6.53
2023-09-20T21:17:07.118Z,6.30
2023-09-20T21:22:04.428Z,6.10
2023-09-20T21:27:02.008Z,5.32
2023-09-20T21:31:58.802Z,6.60
2023-09-20T21:36:56.518Z,5.95
2023-09-20T21:41:56.130Z,6.75
2023-09-20T21:46:54.097Z,7.15
2023-09-20T21:51:51.008Z,6.93
2023-09-20T21:56:47.916Z,6.53
2023-09-20T22:01:44.683Z,6.50
2023-09-20T22:06:42.120Z,6.45
2023-09-20T22:11:38.868Z,7.53
2023-09-20T22:16:36.272Z,7.75
2023-09-20T22:21:33.275Z,6.47
2023-09-20T22:26:31.240Z,6.43
2023-09-20T22:31:29.393Z,6.55
2023-09-20T22:36:26.245Z,6.72
2023-09-20T22:41:24.629Z,6.30
2023-09-20T22:46:22.208Z,7.15
2023-09-20T22:51:21.538Z,7.38
2023-09-20T22:56:18.423Z,6.22
2023-09-20T23:01:15.980Z,7.30
2023-09-20T23:06:13.579Z,7.03
2023-09-20T23:11:12.285Z,7.28
2023-09-20T23:16:16.131Z,6.68
2023-09-20T23:21:16.150Z,8.03
2023-09-20T23:26:13.305Z,6.60
2023-09-20T23:31:13.499Z,8.15
2023-09-20T23:36:11.485Z,7.63
2023-09-20T23:41:15.186Z,6.93
2023-09-20T23:51:16.904Z,6.85
2023-09-20T23:56:14.389Z,6.88
